Ada, OH

6:08 PM EST on February 07, 2016 (GMT -0500)
Ada | | Change Station
CLOSE
Current Station
Personal Weather Station
Location: Ada, OH
Elevation: 912 ft
Nearby Weather Stations

Elev 912 ft 40.82 °N, 83.86 °W | Updated 3 seconds ago

Clear
Clear
46.3 °F
Feels Like 44 °F
N
5.0
Wind Variable Wind from SSW
Gusts 11.0 mph

Today
High -- | Low -- °F
--% Chance of Precip.
Yesterday
High -- | Low -- °F
Precip. -- in
Pressure 29.83 in
Visibility 10.0 miles
Clouds Overcast 11000 ft
Windchill 44 °F
Dew Point 32 °F
Humidity 57%
Rainfall 0.00 in
Snow Depth Not available.
7:39 AM 5:59 PM
Waning Crescent, 1% visible
METAR KAOH 072253Z AUTO 20009KT 10SM OVC110 08/M02 A2981 RMK AO2 SLP100 T00831022
Pressure 29.83 in
Visibility 10.0 miles
Clouds Overcast 11000 ft
Windchill 44 °F
Dew Point 32 °F
Humidity 57%
Rainfall 0.00 in
Snow Depth Not available.
7:39 AM 5:59 PM
Waning Crescent, 1% visible
METAR KAOH 072253Z AUTO 20009KT 10SM OVC110 08/M02 A2981 RMK AO2 SLP100 T00831022

10-Day Weather Forecast

Almanac

Astronomy

Feb. 07, 2016 Rise Set
Actual Time
Civil Twilight
Nautical Twilight
Astronomical Twilight
Moon
Length of Visible Light
Length of Day
Tomorrow will be .
, % of the Moon is Illuminated

Today's Extremes

State Highs State Lows

Community

WunderPhotos

Upload Photos

1,891,325 photos uploaded!

WunderBlog® & News

Nearby

Air Quality

  Air Quality AQ Index Pollutant
Not available.

Snow Depth

Station Depth Elevation

Earthquake Activity

City Distance Mag. Time & Date
Minimum magnitude displayed is 2.5.

Coastal Water Temperatures

Place Temperature

Stations

Nearby Weather Stations

Station Location Temp. Windchill Dew Point Humidity Wind Precip. Elev Updated Type
                   

Watches & Warnings

There are currently no watches in effect.